sensor_id;sensor_type;location;lat;lon;timestamp;temperature;humidity
8481;DHT22;4277;51.354;6.740;2023-07-09T08:47:00;28.00;81.90
8481;DHT22;4277;51.354;6.740;2023-07-09T08:52:10;27.70;53.20
8481;DHT22;4277;51.354;6.740;2023-07-09T08:54:38;27.90;48.60
8481;DHT22;4277;51.354;6.740;2023-07-09T08:57:18;28.20;41.10
8481;DHT22;4277;51.354;6.740;2023-07-09T08:59:45;28.50;27.80
8481;DHT22;4277;51.354;6.740;2023-07-09T09:02:27;28.30;32.20
8481;DHT22;4277;51.354;6.740;2023-07-09T09:04:54;28.30;31.20
8481;DHT22;4277;51.354;6.740;2023-07-09T09:07:32;28.30;33.10
8481;DHT22;4277;51.354;6.740;2023-07-09T09:10:02;28.50;24.90
8481;DHT22;4277;51.354;6.740;2023-07-09T09:12:38;29.00;22.70
8481;DHT22;4277;51.354;6.740;2023-07-09T09:15:12;29.20;19.20
8481;DHT22;4277;51.354;6.740;2023-07-09T09:17:40;29.10;17.00
8481;DHT22;4277;51.354;6.740;2023-07-09T09:20:26;29.20;17.60
8481;DHT22;4277;51.354;6.740;2023-07-09T09:23:13;28.90;22.80
8481;DHT22;4277;51.354;6.740;2023-07-09T09:25:42;29.00;22.30
8481;DHT22;4277;51.354;6.740;2023-07-09T09:28:09;29.00;25.50
8481;DHT22;4277;51.354;6.740;2023-07-09T09:30:35;29.00;27.10
8481;DHT22;4277;51.354;6.740;2023-07-09T09:33:08;29.20;16.50
8481;DHT22;4277;51.354;6.740;2023-07-09T09:35:39;29.60;30.50
8481;DHT22;4277;51.354;6.740;2023-07-09T09:38:19;29.80;28.50
8481;DHT22;4277;51.354;6.740;2023-07-09T09:40:45;29.90;20.90
8481;DHT22;4277;51.354;6.740;2023-07-09T09:43:18;29.70;25.00
8481;DHT22;4277;51.354;6.740;2023-07-09T09:45:47;29.80;26.90
8481;DHT22;4277;51.354;6.740;2023-07-09T09:48:30;29.60;27.70
8481;DHT22;4277;51.354;6.740;2023-07-09T09:50:57;29.90;26.60
8481;DHT22;4277;51.354;6.740;2023-07-09T09:53:28;29.70;31.30
8481;DHT22;4277;51.354;6.740;2023-07-09T09:55:55;29.90;22.10
8481;DHT22;4277;51.354;6.740;2023-07-09T09:58:27;29.80;32.40
8481;DHT22;4277;51.354;6.740;2023-07-09T10:00:55;29.80;30.80
8481;DHT22;4277;51.354;6.740;2023-07-09T10:03:21;29.70;27.00
8481;DHT22;4277;51.354;6.740;2023-07-09T10:05:59;30.10;22.80
8481;DHT22;4277;51.354;6.740;2023-07-09T10:21:20;30.30;21.60
8481;DHT22;4277;51.354;6.740;2023-07-09T10:23:58;30.70;11.50
8481;DHT22;4277;51.354;6.740;2023-07-09T10:26:34;31.20;14.10
8481;DHT22;4277;51.354;6.740;2023-07-09T10:35:10;31.10;18.90
8481;DHT22;4277;51.354;6.740;2023-07-09T10:43:36;30.50;24.10
8481;DHT22;4277;51.354;6.740;2023-07-09T10:46:09;30.40;29.00
8481;DHT22;4277;51.354;6.740;2023-07-09T10:48:45;30.70;14.90
8481;DHT22;4277;51.354;6.740;2023-07-09T10:51:31;31.30;10.10
8481;DHT22;4277;51.354;6.740;2023-07-09T10:54:19;31.20;17.80
8481;DHT22;4277;51.354;6.740;2023-07-09T10:56:48;31.50;9.70
8481;DHT22;4277;51.354;6.740;2023-07-09T11:36:57;31.80;1.00
8481;DHT22;4277;51.354;6.740;2023-07-09T11:41:55;33.10;1.00
8481;DHT22;4277;51.354;6.740;2023-07-09T11:44:32;33.30;1.00
8481;DHT22;4277;51.354;6.740;2023-07-09T12:19:17;33.40;1.00
8481;DHT22;4277;51.354;6.740;2023-07-09T12:21:45;33.60;1.00
8481;DHT22;4277;51.354;6.740;2023-07-09T12:24:36;33.80;1.00
8481;DHT22;4277;51.354;6.740;2023-07-09T12:27:04;34.10;1.00
8481;DHT22;4277;51.354;6.740;2023-07-09T12:29:41;33.90;1.00
8481;DHT22;4277;51.354;6.740;2023-07-09T12:32:16;33.80;1.00
8481;DHT22;4277;51.354;6.740;2023-07-09T12:34:46;34.20;1.00
8481;DHT22;4277;51.354;6.740;2023-07-09T12:37:14;34.20;1.00
8481;DHT22;4277;51.354;6.740;2023-07-09T12:39:40;34.20;1.00
8481;DHT22;4277;51.354;6.740;2023-07-09T12:42:09;34.30;1.00
8481;DHT22;4277;51.354;6.740;2023-07-09T12:44:39;34.20;1.00
8481;DHT22;4277;51.354;6.740;2023-07-09T12:47:05;34.00;1.00
8481;DHT22;4277;51.354;6.740;2023-07-09T12:49:38;33.80;1.00
8481;DHT22;4277;51.354;6.740;2023-07-09T12:52:21;33.90;1.00
8481;DHT22;4277;51.354;6.740;2023-07-09T12:55:00;34.00;1.00
8481;DHT22;4277;51.354;6.740;2023-07-09T12:57:27;33.90;1.00
8481;DHT22;4277;51.354;6.740;2023-07-09T12:59:54;34.00;1.00
8481;DHT22;4277;51.354;6.740;2023-07-09T13:02:26;34.00;1.00
8481;DHT22;4277;51.354;6.740;2023-07-09T13:05:01;34.00;1.00
8481;DHT22;4277;51.354;6.740;2023-07-09T13:07:32;33.70;1.00
8481;DHT22;4277;51.354;6.740;2023-07-09T13:20:45;33.40;1.00
8481;DHT22;4277;51.354;6.740;2023-07-09T13:23:16;32.70;1.00
8481;DHT22;4277;51.354;6.740;2023-07-09T13:25:42;32.40;1.00
8481;DHT22;4277;51.354;6.740;2023-07-09T18:04:42;26.50;99.90
8481;DHT22;4277;51.354;6.740;2023-07-09T18:07:18;27.30;99.90
8481;DHT22;4277;51.354;6.740;2023-07-09T18:09:44;27.70;99.90
8481;DHT22;4277;51.354;6.740;2023-07-09T18:12:13;28.10;99.90
8481;DHT22;4277;51.354;6.740;2023-07-09T18:14:42;28.20;99.90
8481;DHT22;4277;51.354;6.740;2023-07-09T18:17:14;28.20;99.90
8481;DHT22;4277;51.354;6.740;2023-07-09T18:19:40;28.10;99.90
8481;DHT22;4277;51.354;6.740;2023-07-09T18:22:15;28.00;99.90
8481;DHT22;4277;51.354;6.740;2023-07-09T18:24:42;27.80;99.90
8481;DHT22;4277;51.354;6.740;2023-07-09T18:27:15;27.60;99.90
8481;DHT22;4277;51.354;6.740;2023-07-09T18:29:42;27.30;99.90
8481;DHT22;4277;51.354;6.740;2023-07-09T18:32:21;27.00;99.90
8481;DHT22;4277;51.354;6.740;2023-07-09T18:34:49;26.70;99.90
